Bda Borinquen, Puerto Rico
Current Conditions -  °F | °C
As of 11:56 PM on Monday 20 Oct 2014 (Local Time) from TJSJ Reporting Station
Few Clouds Few Clouds  
Wind Chill: 81°   Ceiling: Unl
Heat Index: 86°   Visibility: 10mi
Dew Point: 74°   Wind: 0mph
Humidity: 79%   Direction: NA
Pressure: 29.97"   Gusts: NA
Location:  17.9849°N, 66.1175°W
Report Text: TJSJ 210356Z 00000KT 10SM FEW029 27/23 A2997 RMK AO2 SLP148 T02720233 403110261
Loading
Personal Weather Stations






























Interactive Weather Map
Tropical Storm Tracking
New forecast layout! Learn more

10-Day Weather Forecast

Advertisements
Track Severe Weather on mobile